Big Bear Station Historical Data
Daily Summary for May 8, 2019 Units:  English    Metric   Both
Next Day »
Daily Weekly Monthly Yearly Custom
  High: Low: Average:
Temperature: 71.1 °F 38.3 °F 52.7 °F
Dew Point: 39.4 °F 30 °F 34.3 °F
Humidity: 89% 27% 55%
Wind Speed: 7.3mph 0mph 1.9mph
Wind Gust: -999mph - -
Wind- - West
Pressure: 23.48 in 23.39 in -
Precipitation: 0 in    
Historical Graphs
 
 
Tabular Data for May 8, 2019
Time Temperature Dew Point Pressure Wind Wind Speed Wind Gust Humidity Rainfall Rate (Hourly)
00:03 41.5 °F 34.2 °F 23.47 in South 2.2 mph -999 mph 75% 0.00 in
00:18 41 °F 34 °F 23.46 in Calm   -999 mph 76% 0.00 in
00:33 40.5 °F 33.9 °F 23.46 in Calm   -999 mph 77% 0.00 in
00:48 39.9 °F 33.6 °F 23.46 in Calm   -999 mph 78% 0.00 in
01:03 39.7 °F 34 °F 23.45 in Calm   -999 mph 80% 0.00 in
01:19 39.4 °F 34.4 °F 23.45 in SSE 2.2 mph -999 mph 82% 0.00 in
01:34 39.2 °F 34.8 °F 23.45 in SSW 1.7 mph -999 mph 84% 0.00 in
01:49 39.2 °F 34.5 °F 23.45 in Calm   -999 mph 83% 0.00 in
02:04 39 °F 34.3 °F 23.45 in Calm   -999 mph 83% 0.00 in
02:20 38.7 °F 33.7 °F 23.44 in Calm   -999 mph 82% 0.00 in
02:35 38.7 °F 34 °F 23.44 in Calm   -999 mph 83% 0.00 in
02:50 39 °F 34 °F 23.44 in Calm   -999 mph 82% 0.00 in
03:05 38.5 °F 32.9 °F 23.44 in Calm   -999 mph 80% 0.00 in
03:20 38.5 °F 32.6 °F 23.44 in Calm   -999 mph 79% 0.00 in
03:36 38.8 °F 32.8 °F 23.44 in Calm   -999 mph 79% 0.00 in
03:51 39.2 °F 33.2 °F 23.45 in SE 2.2 mph -999 mph 79% 0.00 in
04:06 39.9 °F 33.6 °F 23.45 in SSE 1.7 mph -999 mph 78% 0.00 in
04:22 39.7 °F 34 °F 23.45 in Calm   -999 mph 80% 0.00 in
04:37 39.9 °F 34.5 °F 23.45 in Calm   -999 mph 81% 0.00 in
04:52 39.7 °F 35 °F 23.45 in Calm   -999 mph 83% 0.00 in
05:07 39.2 °F 34.8 °F 23.45 in Calm   -999 mph 84% 0.00 in
05:22 39 °F 34.9 °F 23.45 in Calm   -999 mph 85% 0.00 in
05:38 38.5 °F 34.4 °F 23.45 in Calm   -999 mph 85% 0.00 in
05:53 38.5 °F 34.4 °F 23.45 in Calm   -999 mph 85% 0.00 in
06:08 38.3 °F 34.5 °F 23.45 in Calm   -999 mph 86% 0.00 in
06:23 38.5 °F 35.5 °F 23.45 in Calm   -999 mph 89% 0.00 in
06:38 38.5 °F 35.5 °F 23.46 in Calm   -999 mph 89% 0.00 in
06:54 38.7 °F 35.7 °F 23.46 in Calm   -999 mph 89% 0.00 in
07:09 39 °F 35.7 °F 23.46 in Calm   -999 mph 88% 0.00 in
07:24 39.6 °F 36.3 °F 23.46 in Calm   -999 mph 88% 0.00 in
07:39 40.5 °F 37.5 °F 23.47 in Calm   -999 mph 89% 0.00 in
07:54 42.1 °F 38.8 °F 23.47 in Calm   -999 mph 88% 0.00 in
08:10 44.4 °F 39.3 °F 23.47 in Calm   -999 mph 82% 0.00 in
08:25 47.7 °F 34.9 °F 23.47 in ESE 1.7 mph -999 mph 61% 0.00 in
08:41 52.9 °F 31.6 °F 23.47 in NNW 5.8 mph -999 mph 44% 0.00 in
08:56 54.7 °F 32 °F 23.47 in North 3.7 mph -999 mph 42% 0.00 in
09:11 55.9 °F 32.5 °F 23.47 in NNW 7.3 mph -999 mph 41% 0.00 in
09:26 56.7 °F 31.4 °F 23.47 in North 4.7 mph -999 mph 38% 0.00 in
09:42 57.4 °F 30 °F 23.46 in NW 5.3 mph -999 mph 35% 0.00 in
09:57 58.1 °F 31.3 °F 23.47 in NNW 6.8 mph -999 mph 36% 0.00 in
10:12 59.2 °F 31.6 °F 23.47 in North 4.7 mph -999 mph 35% 0.00 in
10:28 59.9 °F 31.5 °F 23.47 in Calm   -999 mph 34% 0.00 in
10:43 59.5 °F 31.8 °F 23.47 in Calm   -999 mph 35% 0.00 in
10:58 61.3 °F 31.2 °F 23.48 in WNW 5.3 mph -999 mph 32% 0.00 in
11:13 62.4 °F 33.7 °F 23.47 in NNW 5.8 mph -999 mph 34% 0.00 in
11:28 63.7 °F 33.3 °F 23.47 in North 3.7 mph -999 mph 32% 0.00 in
11:44 64.8 °F 34.2 °F 23.47 in WNW 5.8 mph -999 mph 32% 0.00 in
11:59 64.2 °F 32.9 °F 23.47 in SSE 1.7 mph -999 mph 31% 0.00 in
12:14 65.7 °F 32.6 °F 23.47 in WSW 2.2 mph -999 mph 29% 0.00 in
12:29 64.9 °F 32.7 °F 23.46 in NW 6.3 mph -999 mph 30% 0.00 in
12:44 65.5 °F 33.2 °F 23.46 in WNW 5.8 mph -999 mph 30% 0.00 in
13:00 66.2 °F 33 °F 23.46 in NNW 4.7 mph -999 mph 29% 0.00 in
13:15 66.6 °F 32.5 °F 23.45 in SSW 2.7 mph -999 mph 28% 0.00 in
13:30 67.1 °F 32 °F 23.45 in NNW 4.7 mph -999 mph 27% 0.00 in
13:46 68 °F 32.8 °F 23.44 in SE 1.7 mph -999 mph 27% 0.00 in
14:01 67.6 °F 32.4 °F 23.44 in Calm   -999 mph 27% 0.00 in
14:16 69.6 °F 35.9 °F 23.43 in Calm   -999 mph 29% 0.00 in
14:31 68.2 °F 34.7 °F 23.42 in NE 3.7 mph -999 mph 29% 0.00 in
14:46 69.8 °F 36.1 °F 23.42 in NNW 5.8 mph -999 mph 29% 0.00 in
15:02 69.3 °F 36.5 °F 23.42 in NNW 5.8 mph -999 mph 30% 0.00 in
15:17 68.4 °F 38.2 °F 23.41 in NNW 4.2 mph -999 mph 33% 0.00 in
15:32 69.1 °F 35.5 °F 23.41 in NW 3.7 mph -999 mph 29% 0.00 in
15:48 67.8 °F 34.4 °F 23.41 in NE 2.7 mph -999 mph 29% 0.00 in
16:03 67.8 °F 38.4 °F 23.41 in NW 4.7 mph -999 mph 34% 0.00 in
16:18 67.5 °F 37.4 °F 23.40 in NNW 5.3 mph -999 mph 33% 0.00 in
16:33 67.6 °F 36.7 °F 23.40 in North 4.2 mph -999 mph 32% 0.00 in
16:48 71.1 °F 36.3 °F 23.40 in NNW 4.7 mph -999 mph 28% 0.00 in
17:04 70.5 °F 37.6 °F 23.40 in NNW 3.7 mph -999 mph 30% 0.00 in
17:19 70.2 °F 37.3 °F 23.40 in NW 3.2 mph -999 mph 30% 0.00 in
17:34 69.8 °F 39.4 °F 23.40 in North 4.7 mph -999 mph 33% 0.00 in
17:49 68.9 °F 37.8 °F 23.40 in WNW 3.7 mph -999 mph 32% 0.00 in
18:04 68.5 °F 38.3 °F 23.40 in NNW 3.2 mph -999 mph 33% 0.00 in
18:20 65.5 °F 36.4 °F 23.40 in NW 5.3 mph -999 mph 34% 0.00 in
18:35 62.2 °F 36.3 °F 23.40 in North 2.7 mph -999 mph 38% 0.00 in
18:50 61.5 °F 35 °F 23.39 in North 1.7 mph -999 mph 37% 0.00 in
19:05 60.8 °F 36.3 °F 23.39 in NNW 3.2 mph -999 mph 40% 0.00 in
19:21 59.2 °F 36.7 °F 23.39 in Calm   -999 mph 43% 0.00 in
19:36 57.2 °F 37.1 °F 23.40 in West 1.1 mph -999 mph 47% 0.00 in
19:51 55.6 °F 36.7 °F 23.40 in Calm   -999 mph 49% 0.00 in
20:07 54.1 °F 33.2 °F 23.40 in NE 1.1 mph -999 mph 45% 0.00 in
20:22 53.2 °F 33.5 °F 23.40 in Calm   -999 mph 47% 0.00 in
20:37 52.2 °F 33.6 °F 23.40 in Calm   -999 mph 49% 0.00 in
20:52 51.3 °F 32.8 °F 23.40 in Calm   -999 mph 49% 0.00 in
21:08 49.8 °F 31.9 °F 23.40 in Calm   -999 mph 50% 0.00 in
21:23 49.3 °F 31.9 °F 23.41 in Calm   -999 mph 51% 0.00 in
21:38 48.4 °F 32 °F 23.41 in Calm   -999 mph 53% 0.00 in
21:53 47.8 °F 32.4 °F 23.41 in Calm   -999 mph 55% 0.00 in
22:08 47.5 °F 32.6 °F 23.41 in Calm   -999 mph 56% 0.00 in
22:24 46.9 °F 33.3 °F 23.41 in Calm   -999 mph 59% 0.00 in
22:39 46.2 °F 33.1 °F 23.41 in Calm   -999 mph 60% 0.00 in
22:54 45.7 °F 33.4 °F 23.40 in Calm   -999 mph 62% 0.00 in
23:09 45 °F 33.2 °F 23.40 in Calm   -999 mph 63% 0.00 in
23:24 44.6 °F 32.8 °F 23.40 in Calm   -999 mph 63% 0.00 in
23:40 44.1 °F 32.7 °F 23.40 in Calm   -999 mph 64% 0.00 in
23:55 43.3 °F 32.3 °F 23.40 in Calm   -999 mph 65% 0.00 in
Big Bear CA Weather